sensor_id;sensor_type;location;lat;lon;timestamp;pressure;altitude;pressure_sealevel;temperature;humidity
75006;BME280;63553;51.814;4.600;2023-04-01T00:02:07;99253.00;;;15.42;71.87
75006;BME280;63553;51.814;4.600;2023-04-01T00:04:33;99261.06;;;15.47;71.77
75006;BME280;63553;51.814;4.600;2023-04-01T00:06:58;99267.03;;;15.45;71.83
75006;BME280;63553;51.814;4.600;2023-04-01T00:09:25;99261.41;;;15.45;71.79
75006;BME280;63553;51.814;4.600;2023-04-01T00:11:50;99259.03;;;15.44;71.70
75006;BME280;63553;51.814;4.600;2023-04-01T00:14:16;99271.00;;;15.44;71.65
75006;BME280;63553;51.814;4.600;2023-04-01T00:16:44;99271.44;;;15.46;71.58
75006;BME280;63553;51.814;4.600;2023-04-01T00:19:10;99275.41;;;15.45;71.63
75006;BME280;63553;51.814;4.600;2023-04-01T00:21:35;99274.63;;;15.45;71.64
75006;BME280;63553;51.814;4.600;2023-04-01T00:24:02;99277.41;;;15.45;71.56
75006;BME280;63553;51.814;4.600;2023-04-01T00:26:27;99273.81;;;15.44;71.50
75006;BME280;63553;51.814;4.600;2023-04-01T00:28:53;99280.22;;;15.45;71.53
75006;BME280;63553;51.814;4.600;2023-04-01T00:31:18;99277.00;;;15.43;71.26
75006;BME280;63553;51.814;4.600;2023-04-01T00:33:43;99283.81;;;15.42;71.54
75006;BME280;63553;51.814;4.600;2023-04-01T00:36:11;99281.00;;;15.42;71.47
75006;BME280;63553;51.814;4.600;2023-04-01T00:38:37;99287.41;;;15.42;71.57
75006;BME280;63553;51.814;4.600;2023-04-01T00:41:03;99290.63;;;15.41;71.23
75006;BME280;63553;51.814;4.600;2023-04-01T00:43:29;99287.81;;;15.41;71.22
75006;BME280;63553;51.814;4.600;2023-04-01T00:45:55;99298.59;;;15.39;71.25
75006;BME280;63553;51.814;4.600;2023-04-01T00:48:27;99301.00;;;15.40;71.20
75006;BME280;63553;51.814;4.600;2023-04-01T00:51:16;99300.59;;;15.38;71.03
75006;BME280;63553;51.814;4.600;2023-04-01T00:53:45;99305.81;;;15.40;70.98
75006;BME280;63553;51.814;4.600;2023-04-01T00:56:27;99303.38;;;15.38;71.04
75006;BME280;63553;51.814;4.600;2023-04-01T00:58:59;99315.41;;;15.39;71.01
75006;BME280;63553;51.814;4.600;2023-04-01T01:01:25;99311.00;;;15.38;71.02
75006;BME280;63553;51.814;4.600;2023-04-01T01:03:51;99311.78;;;15.38;70.96
75006;BME280;63553;51.814;4.600;2023-04-01T01:11:41;99322.59;;;15.36;71.08
75006;BME280;63553;51.814;4.600;2023-04-01T01:14:23;99323.00;;;15.35;71.10
75006;BME280;63553;51.814;4.600;2023-04-01T01:16:54;99324.97;;;15.34;71.03
75006;BME280;63553;51.814;4.600;2023-04-01T01:22:46;99327.75;;;15.31;70.90
75006;BME280;63553;51.814;4.600;2023-04-01T01:31:07;99323.78;;;15.32;70.29
75006;BME280;63553;51.814;4.600;2023-04-01T01:34:01;99328.13;;;15.29;70.50
75006;BME280;63553;51.814;4.600;2023-04-01T01:36:31;99320.53;;;15.30;70.63
75006;BME280;63553;51.814;4.600;2023-04-01T01:39:01;99331.75;;;15.30;70.45
75006;BME280;63553;51.814;4.600;2023-04-01T01:41:29;99329.75;;;15.30;70.49
75006;BME280;63553;51.814;4.600;2023-04-01T01:43:56;99337.34;;;15.30;70.37
75006;BME280;63553;51.814;4.600;2023-04-01T01:46:26;99335.75;;;15.29;70.50
75006;BME280;63553;51.814;4.600;2023-04-01T01:48:53;99344.16;;;15.29;70.54
75006;BME280;63553;51.814;4.600;2023-04-01T01:51:20;99344.94;;;15.29;70.20
75006;BME280;63553;51.814;4.600;2023-04-01T01:53:46;99340.13;;;15.30;70.32
75006;BME280;63553;51.814;4.600;2023-04-01T01:56:12;99344.94;;;15.29;70.24
75006;BME280;63553;51.814;4.600;2023-04-01T01:58:52;99355.34;;;15.29;70.13
75006;BME280;63553;51.814;4.600;2023-04-01T02:01:24;99348.13;;;15.28;70.22
75006;BME280;63553;51.814;4.600;2023-04-01T02:03:51;99356.91;;;15.26;70.24
75006;BME280;63553;51.814;4.600;2023-04-01T02:06:18;99361.34;;;15.27;70.18
75006;BME280;63553;51.814;4.600;2023-04-01T02:11:19;99367.75;;;15.28;70.21
75006;BME280;63553;51.814;4.600;2023-04-01T02:13:54;99364.13;;;15.27;69.98
75006;BME280;63553;51.814;4.600;2023-04-01T02:16:27;99370.53;;;15.28;70.19
75006;BME280;63553;51.814;4.600;2023-04-01T02:18:56;99369.72;;;15.27;70.03
75006;BME280;63553;51.814;4.600;2023-04-01T02:21:24;99372.94;;;15.26;70.13
75006;BME280;63553;51.814;4.600;2023-04-01T02:23:53;99371.72;;;15.27;70.09
75006;BME280;63553;51.814;4.600;2023-04-01T02:26:20;99369.69;;;15.24;70.18
75006;BME280;63553;51.814;4.600;2023-04-01T02:28:46;99374.53;;;15.23;70.20
75006;BME280;63553;51.814;4.600;2023-04-01T02:31:14;99375.31;;;15.24;70.04
75006;BME280;63553;51.814;4.600;2023-04-01T02:33:40;99388.53;;;15.23;70.06
75006;BME280;63553;51.814;4.600;2023-04-01T02:36:06;99382.47;;;15.21;69.91
75006;BME280;63553;51.814;4.600;2023-04-01T02:38:35;99393.72;;;15.25;69.71
75006;BME280;63553;51.814;4.600;2023-04-01T02:41:02;99382.91;;;15.23;69.69
75006;BME280;63553;51.814;4.600;2023-04-01T02:43:28;99392.09;;;15.24;69.60
75006;BME280;63553;51.814;4.600;2023-04-01T02:45:53;99391.31;;;15.23;69.60
75006;BME280;63553;51.814;4.600;2023-04-01T02:48:19;99397.69;;;15.24;69.38
75006;BME280;63553;51.814;4.600;2023-04-01T02:50:45;99398.91;;;15.23;69.60
75006;BME280;63553;51.814;4.600;2023-04-01T02:53:11;99400.09;;;15.22;69.54
75006;BME280;63553;51.814;4.600;2023-04-01T02:55:37;99405.69;;;15.22;69.42
75006;BME280;63553;51.814;4.600;2023-04-01T02:58:02;99404.06;;;15.21;69.48
75006;BME280;63553;51.814;4.600;2023-04-01T03:00:28;99403.69;;;15.22;69.34
75006;BME280;63553;51.814;4.600;2023-04-01T03:02:54;99418.06;;;15.21;69.23
75006;BME280;63553;51.814;4.600;2023-04-01T03:05:19;99412.47;;;15.21;69.28
75006;BME280;63553;51.814;4.600;2023-04-01T03:07:45;99410.88;;;15.20;69.38
75006;BME280;63553;51.814;4.600;2023-04-01T03:10:10;99422.09;;;15.20;69.37
75006;BME280;63553;51.814;4.600;2023-04-01T03:12:36;99426.88;;;15.19;69.35
75006;BME280;63553;51.814;4.600;2023-04-01T03:15:02;99421.28;;;15.19;69.38
75006;BME280;63553;51.814;4.600;2023-04-01T03:17:27;99432.47;;;15.19;69.25
75006;BME280;63553;51.814;4.600;2023-04-01T03:19:53;99434.47;;;15.19;69.28
75006;BME280;63553;51.814;4.600;2023-04-01T03:22:18;99436.47;;;15.18;69.38
75006;BME280;63553;51.814;4.600;2023-04-01T03:24:46;99449.66;;;15.18;69.34
75006;BME280;63553;51.814;4.600;2023-04-01T03:27:12;99440.06;;;15.19;69.41
75006;BME280;63553;51.814;4.600;2023-04-01T03:29:37;99449.66;;;15.18;69.21
75006;BME280;63553;51.814;4.600;2023-04-01T03:32:02;99447.66;;;15.18;69.37
75006;BME280;63553;51.814;4.600;2023-04-01T03:34:27;99455.25;;;15.18;69.34
75006;BME280;63553;51.814;4.600;2023-04-01T03:36:53;99459.66;;;15.19;69.28
75006;BME280;63553;51.814;4.600;2023-04-01T03:39:18;99463.28;;;15.19;69.36
75006;BME280;63553;51.814;4.600;2023-04-01T03:41:45;99466.44;;;15.18;69.29
75006;BME280;63553;51.814;4.600;2023-04-01T03:44:10;99466.06;;;15.19;69.37
75006;BME280;63553;51.814;4.600;2023-04-01T03:46:36;99466.06;;;15.19;69.46
75006;BME280;63553;51.814;4.600;2023-04-01T03:49:02;99471.28;;;15.17;69.31
75006;BME280;63553;51.814;4.600;2023-04-01T03:51:27;99472.03;;;15.18;69.51
75006;BME280;63553;51.814;4.600;2023-04-01T03:53:53;99477.25;;;15.16;69.53
75006;BME280;63553;51.814;4.600;2023-04-01T03:56:18;99478.84;;;15.17;69.54
75006;BME280;63553;51.814;4.600;2023-04-01T03:58:43;99484.47;;;15.17;69.43
75006;BME280;63553;51.814;4.600;2023-04-01T04:01:16;99480.03;;;15.16;69.48
75006;BME280;63553;51.814;4.600;2023-04-01T04:03:42;99484.81;;;15.15;69.32
75006;BME280;63553;51.814;4.600;2023-04-01T04:06:16;99492.03;;;15.16;69.27
75006;BME280;63553;51.814;4.600;2023-04-01T04:08:42;99497.25;;;15.18;69.33
75006;BME280;63553;51.814;4.600;2023-04-01T04:11:08;99496.03;;;15.15;69.45
75006;BME280;63553;51.814;4.600;2023-04-01T04:13:34;99503.63;;;15.15;69.44
75006;BME280;63553;51.814;4.600;2023-04-01T04:16:01;99498.81;;;15.15;69.23
75006;BME280;63553;51.814;4.600;2023-04-01T04:18:26;99510.84;;;15.16;69.28
75006;BME280;63553;51.814;4.600;2023-04-01T04:20:52;99520.41;;;15.15;69.28
75006;BME280;63553;51.814;4.600;2023-04-01T04:23:17;99523.66;;;15.17;69.36
75006;BME280;63553;51.814;4.600;2023-04-01T04:26:14;99529.63;;;15.15;69.15
75006;BME280;63553;51.814;4.600;2023-04-01T04:28:39;99530.44;;;15.16;69.36
75006;BME280;63553;51.814;4.600;2023-04-01T04:31:05;99536.44;;;15.18;69.34
75006;BME280;63553;51.814;4.600;2023-04-01T04:33:31;99537.66;;;15.17;69.25
75006;BME280;63553;51.814;4.600;2023-04-01T04:35:58;99538.84;;;15.16;69.42
75006;BME280;63553;51.814;4.600;2023-04-01T04:38:23;99541.63;;;15.16;69.36
75006;BME280;63553;51.814;4.600;2023-04-01T04:40:49;99538.41;;;15.14;69.16
75006;BME280;63553;51.814;4.600;2023-04-01T04:43:15;99548.81;;;15.13;69.21
75006;BME280;63553;51.814;4.600;2023-04-01T04:45:41;99554.81;;;15.15;69.31
75006;BME280;63553;51.814;4.600;2023-04-01T04:48:08;99552.84;;;15.16;69.30
75006;BME280;63553;51.814;4.600;2023-04-01T04:50:34;99557.63;;;15.15;69.38
75006;BME280;63553;51.814;4.600;2023-04-01T04:52:59;99555.63;;;15.16;69.50
75006;BME280;63553;51.814;4.600;2023-04-01T04:55:25;99566.41;;;15.14;69.15
75006;BME280;63553;51.814;4.600;2023-04-01T04:57:50;99572.44;;;15.16;69.00
75006;BME280;63553;51.814;4.600;2023-04-01T05:00:16;99577.22;;;15.15;69.31
75006;BME280;63553;51.814;4.600;2023-04-01T05:02:41;99580.84;;;15.16;69.34
75006;BME280;63553;51.814;4.600;2023-04-01T05:05:07;99585.63;;;15.15;69.32
75006;BME280;63553;51.814;4.600;2023-04-01T05:07:33;99589.63;;;15.14;69.28
75006;BME280;63553;51.814;4.600;2023-04-01T05:09:59;99590.03;;;15.16;69.22
75006;BME280;63553;51.814;4.600;2023-04-01T05:12:24;99589.22;;;15.16;69.42
75006;BME280;63553;51.814;4.600;2023-04-01T05:14:49;99594.41;;;15.14;69.14
75006;BME280;63553;51.814;4.600;2023-04-01T05:17:15;99598.91;;;15.22;70.92
75006;BME280;63553;51.814;4.600;2023-04-01T05:19:40;99616.25;;;15.34;71.92
75006;BME280;63553;51.814;4.600;2023-04-01T05:22:06;99612.31;;;15.42;72.60
75006;BME280;63553;51.814;4.600;2023-04-01T05:24:32;99617.50;;;15.40;72.15
75006;BME280;63553;51.814;4.600;2023-04-01T05:26:58;99619.50;;;15.40;70.58
75006;BME280;63553;51.814;4.600;2023-04-01T05:29:25;99626.31;;;15.42;69.79
75006;BME280;63553;51.814;4.600;2023-04-01T05:31:50;99616.28;;;15.38;69.79
75006;BME280;63553;51.814;4.600;2023-04-01T05:34:16;99623.47;;;15.39;69.50
75006;BME280;63553;51.814;4.600;2023-04-01T05:36:42;99633.09;;;15.38;69.33
75006;BME280;63553;51.814;4.600;2023-04-01T05:39:08;99631.06;;;15.35;69.23
75006;BME280;63553;51.814;4.600;2023-04-01T05:41:37;99641.88;;;15.36;69.23
75006;BME280;63553;51.814;4.600;2023-04-01T05:44:02;99637.03;;;15.33;69.28
75006;BME280;63553;51.814;4.600;2023-04-01T05:46:28;99643.03;;;15.32;69.31
75006;BME280;63553;51.814;4.600;2023-04-01T05:48:53;99654.22;;;15.32;69.26
75006;BME280;63553;51.814;4.600;2023-04-01T05:51:19;99665.81;;;15.30;69.16
75006;BME280;63553;51.814;4.600;2023-04-01T05:53:44;99670.22;;;15.31;69.08
75006;BME280;63553;51.814;4.600;2023-04-01T05:56:09;99669.00;;;15.29;69.07
75006;BME280;63553;51.814;4.600;2023-04-01T05:58:36;99681.78;;;15.30;68.95
75006;BME280;63553;51.814;4.600;2023-04-01T06:01:06;99685.00;;;15.28;69.07
75006;BME280;63553;51.814;4.600;2023-04-01T06:03:32;99689.78;;;15.28;68.93
75006;BME280;63553;51.814;4.600;2023-04-01T06:05:57;99690.59;;;15.28;68.76
75006;BME280;63553;51.814;4.600;2023-04-01T06:08:24;99701.78;;;15.28;68.87
75006;BME280;63553;51.814;4.600;2023-04-01T06:17:16;99713.00;;;15.28;68.68
75006;BME280;63553;51.814;4.600;2023-04-01T06:19:58;99719.78;;;15.27;68.47
75006;BME280;63553;51.814;4.600;2023-04-01T06:22:39;99718.97;;;15.27;68.68
75006;BME280;63553;51.814;4.600;2023-04-01T06:25:23;99724.56;;;15.27;68.65
75006;BME280;63553;51.814;4.600;2023-04-01T06:30:42;99726.94;;;15.25;68.50
75006;BME280;63553;51.814;4.600;2023-04-01T06:33:20;99742.13;;;15.24;68.61
75006;BME280;63553;51.814;4.600;2023-04-01T06:46:55;99748.47;;;15.21;68.69
75006;BME280;63553;51.814;4.600;2023-04-01T06:56:04;99760.88;;;15.20;68.44
75006;BME280;63553;51.814;4.600;2023-04-01T06:58:39;99773.28;;;15.19;68.47
75006;BME280;63553;51.814;4.600;2023-04-01T07:01:07;99777.69;;;15.20;68.33
75006;BME280;63553;51.814;4.600;2023-04-01T07:03:41;99779.69;;;15.19;68.42
75006;BME280;63553;51.814;4.600;2023-04-01T07:08:54;99784.88;;;15.21;68.23
75006;BME280;63553;51.814;4.600;2023-04-01T07:11:29;99785.69;;;15.21;68.18
75006;BME280;63553;51.814;4.600;2023-04-01T07:14:01;99788.94;;;15.23;68.11
75006;BME280;63553;51.814;4.600;2023-04-01T07:16:43;99789.72;;;15.24;68.01
75006;BME280;63553;51.814;4.600;2023-04-01T07:19:21;99794.22;;;15.28;67.85
75006;BME280;63553;51.814;4.600;2023-04-01T07:21:49;99805.84;;;15.30;67.96
75006;BME280;63553;51.814;4.600;2023-04-01T07:24:22;99799.88;;;15.35;68.36
75006;BME280;63553;51.814;4.600;2023-04-01T07:26:54;99803.56;;;15.39;69.35
75006;BME280;63553;51.814;4.600;2023-04-01T07:29:21;99811.63;;;15.44;69.04
75006;BME280;63553;51.814;4.600;2023-04-01T07:37:01;99818.94;;;15.49;68.07
75006;BME280;63553;51.814;4.600;2023-04-01T07:47:58;99829.38;;;15.52;68.23
75006;BME280;63553;51.814;4.600;2023-04-01T07:55:35;99838.19;;;15.54;68.39
75006;BME280;63553;51.814;4.600;2023-04-01T07:58:29;99842.22;;;15.56;68.31
75006;BME280;63553;51.814;4.600;2023-04-01T08:01:17;99846.31;;;15.63;68.40
75006;BME280;63553;51.814;4.600;2023-04-01T08:06:27;99856.78;;;15.66;67.89
75006;BME280;63553;51.814;4.600;2023-04-01T08:17:20;99872.81;;;15.69;69.03
75006;BME280;63553;51.814;4.600;2023-04-01T08:20:01;99873.63;;;15.69;69.26
75006;BME280;63553;51.814;4.600;2023-04-01T08:25:28;99882.81;;;15.66;68.41
75006;BME280;63553;51.814;4.600;2023-04-01T08:28:00;99887.22;;;15.67;68.46
75006;BME280;63553;51.814;4.600;2023-04-01T08:33:19;99897.22;;;15.65;68.16
75006;BME280;63553;51.814;4.600;2023-04-01T08:36:08;99902.00;;;15.64;68.36
75006;BME280;63553;51.814;4.600;2023-04-01T08:41:37;99915.56;;;15.62;67.97
75006;BME280;63553;51.814;4.600;2023-04-01T08:49:44;99920.38;;;15.62;67.85
75006;BME280;63553;51.814;4.600;2023-04-01T08:52:35;99925.19;;;15.61;67.54
75006;BME280;63553;51.814;4.600;2023-04-01T09:03:18;99930.03;;;15.64;67.22
75006;BME280;63553;51.814;4.600;2023-04-01T09:09:24;99944.84;;;15.65;67.30
75006;BME280;63553;51.814;4.600;2023-04-01T09:14:46;99948.50;;;15.69;67.13
75006;BME280;63553;51.814;4.600;2023-04-01T09:17:29;99952.91;;;15.70;67.21
75006;BME280;63553;51.814;4.600;2023-04-01T09:25:29;99955.38;;;15.75;66.83
75006;BME280;63553;51.814;4.600;2023-04-01T09:33:39;99957.16;;;15.86;65.53
75006;BME280;63553;51.814;4.600;2023-04-01T09:38:57;99961.91;;;15.82;64.86
75006;BME280;63553;51.814;4.600;2023-04-01T09:41:32;99963.50;;;15.83;64.88
75006;BME280;63553;51.814;4.600;2023-04-01T09:44:03;99968.38;;;15.86;64.46
75006;BME280;63553;51.814;4.600;2023-04-01T09:46:51;99970.00;;;15.87;64.71
75006;BME280;63553;51.814;4.600;2023-04-01T09:49:55;99973.97;;;15.86;64.71
75006;BME280;63553;51.814;4.600;2023-04-01T10:39:32;100026.69;;;15.77;64.11
75006;BME280;63553;51.814;4.600;2023-04-01T10:54:18;100033.88;;;15.75;68.28
75006;BME280;63553;51.814;4.600;2023-04-01T10:56:51;100040.72;;;15.77;68.08
75006;BME280;63553;51.814;4.600;2023-04-01T11:23:22;100065.03;;;15.96;65.63
75006;BME280;63553;51.814;4.600;2023-04-01T11:26:00;100060.66;;;15.98;64.96
75006;BME280;63553;51.814;4.600;2023-04-01T11:31:26;100074.34;;;16.03;65.39
75006;BME280;63553;51.814;4.600;2023-04-01T11:36:48;100082.81;;;16.07;64.93
75006;BME280;63553;51.814;4.600;2023-04-01T11:39:27;100079.66;;;16.08;64.70
75006;BME280;63553;51.814;4.600;2023-04-01T11:45:15;100081.22;;;16.06;65.09
75006;BME280;63553;51.814;4.600;2023-04-01T11:53:15;100093.28;;;16.10;65.24
75006;BME280;63553;51.814;4.600;2023-04-01T12:09:46;100124.41;;;16.01;65.49
75006;BME280;63553;51.814;4.600;2023-04-01T12:15:03;100125.16;;;15.98;65.26
75006;BME280;63553;51.814;4.600;2023-04-01T12:17:48;100133.22;;;16.00;65.82
75006;BME280;63553;51.814;4.600;2023-04-01T12:30:06;100136.09;;;16.07;69.49
75006;BME280;63553;51.814;4.600;2023-04-01T13:16:46;100193.69;;;16.01;67.16
75006;BME280;63553;51.814;4.600;2023-04-01T13:19:22;100194.50;;;16.01;66.69
75006;BME280;63553;51.814;4.600;2023-04-01T13:24:41;100208.91;;;16.00;66.77
75006;BME280;63553;51.814;4.600;2023-04-01T13:29:45;100206.53;;;16.02;66.60
75006;BME280;63553;51.814;4.600;2023-04-01T13:43:25;100235.00;;;16.04;65.96
75006;BME280;63553;51.814;4.600;2023-04-01T13:51:56;100236.06;;;15.96;66.28
75006;BME280;63553;51.814;4.600;2023-04-01T13:59:59;100234.81;;;15.93;66.43
75006;BME280;63553;51.814;4.600;2023-04-01T14:18:45;100256.38;;;15.89;66.59
75006;BME280;63553;51.814;4.600;2023-04-01T14:27:06;100262.78;;;15.90;66.69
75006;BME280;63553;51.814;4.600;2023-04-01T14:34:59;100279.19;;;15.88;66.77
75006;BME280;63553;51.814;4.600;2023-04-01T14:38:27;100271.88;;;15.83;66.58
75006;BME280;63553;51.814;4.600;2023-04-01T14:41:10;100281.91;;;15.84;66.98
75006;BME280;63553;51.814;4.600;2023-04-01T14:46:26;100289.91;;;15.82;66.80
75006;BME280;63553;51.814;4.600;2023-04-01T14:48:59;100297.09;;;15.83;66.60
75006;BME280;63553;51.814;4.600;2023-04-01T14:51:36;100292.69;;;15.82;66.55
75006;BME280;63553;51.814;4.600;2023-04-01T14:56:39;100306.31;;;15.84;66.31
75006;BME280;63553;51.814;4.600;2023-04-01T14:59:09;100314.75;;;15.84;66.51
75006;BME280;63553;51.814;4.600;2023-04-01T15:01:37;100315.56;;;15.84;66.38
75006;BME280;63553;51.814;4.600;2023-04-01T15:07:18;100315.13;;;15.82;66.54
75006;BME280;63553;51.814;4.600;2023-04-01T15:10:12;100319.53;;;15.83;66.55
75006;BME280;63553;51.814;4.600;2023-04-01T15:13:43;100326.34;;;15.82;66.37
75006;BME280;63553;51.814;4.600;2023-04-01T15:16:06;100323.06;;;15.80;66.54
75006;BME280;63553;51.814;4.600;2023-04-01T15:24:29;100343.44;;;15.77;66.93
75006;BME280;63553;51.814;4.600;2023-04-01T15:35:35;100361.50;;;16.18;71.35
75006;BME280;63553;51.814;4.600;2023-04-01T15:40:42;100358.63;;;16.37;78.01
75006;BME280;63553;51.814;4.600;2023-04-01T15:51:37;100373.53;;;13.89;84.58
75006;BME280;63553;51.814;4.600;2023-04-01T16:02:51;100386.91;;;15.68;76.87
75006;BME280;63553;51.814;4.600;2023-04-01T16:11:03;100409.16;;;15.45;72.91
75006;BME280;63553;51.814;4.600;2023-04-01T16:19:26;100418.84;;;16.01;72.43
75006;BME280;63553;51.814;4.600;2023-04-01T16:21:58;100422.69;;;14.92;71.80
75006;BME280;63553;51.814;4.600;2023-04-01T16:24:38;100427.13;;;15.60;74.16
75006;BME280;63553;51.814;4.600;2023-04-01T16:30:01;100438.00;;;14.24;81.01
75006;BME280;63553;51.814;4.600;2023-04-01T16:32:41;100442.84;;;13.71;78.64
75006;BME280;63553;51.814;4.600;2023-04-01T16:35:21;100442.34;;;13.29;77.87
75006;BME280;63553;51.814;4.600;2023-04-01T16:38:12;100457.13;;;13.30;78.59
75006;BME280;63553;51.814;4.600;2023-04-01T16:41:00;100456.00;;;13.71;77.80
75006;BME280;63553;51.814;4.600;2023-04-01T16:43:38;100459.41;;;13.40;77.51
75006;BME280;63553;51.814;4.600;2023-04-01T16:46:40;100466.56;;;14.17;74.56
75006;BME280;63553;51.814;4.600;2023-04-01T16:51:46;100485.25;;;11.82;81.38
75006;BME280;63553;51.814;4.600;2023-04-01T16:57:16;100486.31;;;13.32;84.75
75006;BME280;63553;51.814;4.600;2023-04-01T17:02:45;100509.38;;;11.78;82.88
75006;BME280;63553;51.814;4.600;2023-04-01T17:05:12;100508.06;;;11.75;87.05
75006;BME280;63553;51.814;4.600;2023-04-01T17:07:41;100516.88;;;11.48;85.47
75006;BME280;63553;51.814;4.600;2023-04-01T17:13:33;100533.16;;;11.75;82.50
75006;BME280;63553;51.814;4.600;2023-04-01T17:20:38;100544.94;;;13.32;83.71
75006;BME280;63553;51.814;4.600;2023-04-01T17:24:00;100550.81;;;12.74;81.24
75006;BME280;63553;51.814;4.600;2023-04-01T17:26:38;100555.66;;;12.86;83.03
75006;BME280;63553;51.814;4.600;2023-04-01T17:42:52;100597.28;;;13.23;74.01
75006;BME280;63553;51.814;4.600;2023-04-01T17:45:53;100600.97;;;12.82;77.92
75006;BME280;63553;51.814;4.600;2023-04-01T17:51:31;100608.47;;;13.23;79.01
75006;BME280;63553;51.814;4.600;2023-04-01T17:54:16;100616.88;;;13.84;77.42
75006;BME280;63553;51.814;4.600;2023-04-01T17:59:38;100629.97;;;12.69;80.24
75006;BME280;63553;51.814;4.600;2023-04-01T18:07:59;100650.03;;;12.21;80.24
75006;BME280;63553;51.814;4.600;2023-04-01T18:24:29;100683.03;;;13.80;78.05
75006;BME280;63553;51.814;4.600;2023-04-01T18:29:35;100692.81;;;14.59;76.81
75006;BME280;63553;51.814;4.600;2023-04-01T18:32:18;100700.13;;;14.75;76.24
75006;BME280;63553;51.814;4.600;2023-04-01T18:35:00;100708.41;;;14.84;74.48
75006;BME280;63553;51.814;4.600;2023-04-01T18:37:40;100713.84;;;14.92;73.34
75006;BME280;63553;51.814;4.600;2023-04-01T18:45:47;100735.69;;;15.15;73.08
75006;BME280;63553;51.814;4.600;2023-04-01T18:51:14;100751.44;;;15.19;71.66
75006;BME280;63553;51.814;4.600;2023-04-01T18:53:57;100761.13;;;15.22;71.04
75006;BME280;63553;51.814;4.600;2023-04-01T18:56:34;100770.34;;;15.22;70.45
75006;BME280;63553;51.814;4.600;2023-04-01T18:59:25;100773.97;;;15.23;70.40
75006;BME280;63553;51.814;4.600;2023-04-01T19:02:36;100778.03;;;15.25;70.29
75006;BME280;63553;51.814;4.600;2023-04-01T19:05:12;100775.69;;;15.27;70.18
75006;BME280;63553;51.814;4.600;2023-04-01T19:07:54;100780.03;;;15.25;69.91
75006;BME280;63553;51.814;4.600;2023-04-01T19:10:38;100795.41;;;15.31;70.08
75006;BME280;63553;51.814;4.600;2023-04-01T19:16:21;100798.22;;;15.31;69.82
75006;BME280;63553;51.814;4.600;2023-04-01T19:21:58;100825.78;;;15.29;69.83
75006;BME280;63553;51.814;4.600;2023-04-01T19:27:50;100830.56;;;15.28;69.72
75006;BME280;63553;51.814;4.600;2023-04-01T19:30:45;100835.34;;;15.28;70.14
75006;BME280;63553;51.814;4.600;2023-04-01T19:36:48;100837.56;;;15.22;70.10
75006;BME280;63553;51.814;4.600;2023-04-01T19:44:56;100860.69;;;15.19;69.87
75006;BME280;63553;51.814;4.600;2023-04-01T19:52:52;100872.72;;;15.20;70.01
75006;BME280;63553;51.814;4.600;2023-04-01T19:55:58;100878.31;;;15.20;70.02
75006;BME280;63553;51.814;4.600;2023-04-01T19:58:48;100881.09;;;15.20;70.11
75006;BME280;63553;51.814;4.600;2023-04-01T20:04:03;100899.53;;;15.21;69.90
75006;BME280;63553;51.814;4.600;2023-04-01T20:06:38;100902.31;;;15.21;69.80
75006;BME280;63553;51.814;4.600;2023-04-01T20:09:24;100907.47;;;15.19;69.82
75006;BME280;63553;51.814;4.600;2023-04-01T20:12:25;100912.25;;;15.18;69.94
75006;BME280;63553;51.814;4.600;2023-04-01T20:14:57;100917.72;;;15.15;69.88
75006;BME280;63553;51.814;4.600;2023-04-01T20:17:40;100928.25;;;15.18;69.92
75006;BME280;63553;51.814;4.600;2023-04-01T20:25:17;100942.59;;;15.16;69.84
75006;BME280;63553;51.814;4.600;2023-04-01T20:27:50;100950.66;;;15.18;69.60
75006;BME280;63553;51.814;4.600;2023-04-01T20:41:10;100971.66;;;15.12;69.70
75006;BME280;63553;51.814;4.600;2023-04-01T20:51:59;101000.16;;;15.14;69.38
75006;BME280;63553;51.814;4.600;2023-04-01T21:00:31;101011.69;;;15.12;69.26
75006;BME280;63553;51.814;4.600;2023-04-01T21:03:43;101020.91;;;15.13;69.27
75006;BME280;63553;51.814;4.600;2023-04-01T21:06:58;101029.66;;;15.11;69.37
75006;BME280;63553;51.814;4.600;2023-04-01T21:13:01;101041.19;;;15.10;69.11
75006;BME280;63553;51.814;4.600;2023-04-01T21:15:47;101049.59;;;15.10;69.28
75006;BME280;63553;51.814;4.600;2023-04-01T21:18:40;101058.81;;;15.10;69.18
75006;BME280;63553;51.814;4.600;2023-04-01T21:46:31;101112.59;;;15.03;69.04
75006;BME280;63553;51.814;4.600;2023-04-01T21:52:23;101124.63;;;15.04;68.85
75006;BME280;63553;51.814;4.600;2023-04-01T21:58:25;101142.44;;;14.99;68.86
75006;BME280;63553;51.814;4.600;2023-04-01T22:01:08;101143.50;;;14.95;68.56
75006;BME280;63553;51.814;4.600;2023-04-01T22:12:02;101160.97;;;14.92;69.07
75006;BME280;63553;51.814;4.600;2023-04-01T22:14:39;101177.44;;;14.93;69.04
75006;BME280;63553;51.814;4.600;2023-04-01T22:17:25;101173.16;;;14.96;68.97
75006;BME280;63553;51.814;4.600;2023-04-01T22:22:59;101182.69;;;14.95;68.90
75006;BME280;63553;51.814;4.600;2023-04-01T22:25:49;101183.38;;;14.92;68.97
75006;BME280;63553;51.814;4.600;2023-04-01T22:28:22;101198.19;;;14.92;68.88
75006;BME280;63553;51.814;4.600;2023-04-01T22:30:55;101199.34;;;14.91;68.75
75006;BME280;63553;51.814;4.600;2023-04-01T22:33:38;101200.88;;;14.89;68.48
75006;BME280;63553;51.814;4.600;2023-04-01T22:41:47;101208.78;;;14.87;68.84
75006;BME280;63553;51.814;4.600;2023-04-01T22:47:31;101226.59;;;14.82;69.13
75006;BME280;63553;51.814;4.600;2023-04-01T22:52:41;101233.38;;;14.81;68.51
75006;BME280;63553;51.814;4.600;2023-04-01T22:55:20;101244.91;;;14.80;68.61
75006;BME280;63553;51.814;4.600;2023-04-01T22:58:09;101250.03;;;14.78;68.12
75006;BME280;63553;51.814;4.600;2023-04-01T23:00:49;101251.03;;;14.73;67.80
75006;BME280;63553;51.814;4.600;2023-04-01T23:03:22;101258.50;;;14.69;69.18
75006;BME280;63553;51.814;4.600;2023-04-01T23:05:52;101262.13;;;14.70;68.78
75006;BME280;63553;51.814;4.600;2023-04-01T23:11:00;101272.50;;;14.69;69.16